This is the latest recevied weather packets stored in our database for station/object KB9HGI-1. If no packets are shown the sender has not sent any weather packets the latest 10 day(s).
| Time | Temp. | Humidity | Pressure | Rain* | Wind** | Luminosity | Snow |
|---|---|---|---|---|---|---|---|
| 1777876624 | 14.44° C | 87% | 1004.1 hPa | 0.25 mm | - | 0 W/m² | - |
| 1777863855 | 17.22° C | 66% | 1005.4 hPa | 0 mm | - | 0 W/m² | - |
| 1777860851 | 18.33° C | 62% | 1005.4 hPa | 0 mm | - | 0 W/m² | - |
| 1777847006 | 22.78° C | 50% | 1006.1 hPa | 0 mm | - | 153 W/m² | - |
| 1777834331 | 21.67° C | 49% | 1007.8 hPa | 0 mm | - | 489 W/m² | - |
| 1777831897 | 20° C | 50% | 1007.8 hPa | 0 mm | - | 434 W/m² | - |
| 1777830096 | 18.89° C | 50% | 1008.8 hPa | 0 mm | - | 439 W/m² | - |
| 1777828894 | 18.33° C | 52% | 1009.1 hPa | 0 mm | - | 279 W/m² | - |
| 1777825891 | 17.22° C | 52% | 1009.5 hPa | 0 mm | - | 322 W/m² | - |
| 1777823426 | 16.67° C | 53% | 1011.2 hPa | 0 mm | - | 339 W/m² | - |
| 1777821023 | 16.11° C | 55% | 1011.9 hPa | 0 mm | - | 585 W/m² | - |
| 1777814416 | 12.78° C | 63% | 1012.5 hPa | 0 mm | - | 387 W/m² | - |
| 1777810781 | 10.56° C | 66% | 1013.5 hPa | 0 mm | - | 176 W/m² | - |
| 1777810150 | 10° C | 67% | 1013.5 hPa | 0 mm | - | 156 W/m² | - |
| 1777803543 | 8.33° C | 74% | 1013.5 hPa | 0 mm | - | 0 W/m² | - |
| 1777802942 | 8.33° C | 74% | 1013.5 hPa | 0 mm | - | 0 W/m² | - |
| 1777798138 | 8.33° C | 74% | 1013.9 hPa | 0 mm | - | 0 W/m² | - |
| 1777795704 | 8.33° C | 74% | 1014.2 hPa | 0 mm | - | 0 W/m² | - |
| 1777795042 | 8.33° C | 73% | 1014.2 hPa | 0 mm | - | 0 W/m² | - |
| 1777785938 | 10° C | 66% | 1015.2 hPa | 0 mm | - | 0 W/m² | - |
| 1777784706 | 10° C | 64% | 1015.6 hPa | 0 mm | - | 0 W/m² | - |
| 1777777374 | 10.56° C | 63% | 1016.3 hPa | 0 mm | - | 0 W/m² | - |
| 1777768303 | 16.11° C | 40% | 1015.6 hPa | 0 mm | - | 42 W/m² | - |
| 1777762234 | 16.67° C | 38% | 1015.9 hPa | 0 mm | - | 394 W/m² | - |
| 1777745942 | 15° C | 46% | 1017.9 hPa | 0 mm | - | 1281 W/m² | - |
* Rain latest hour (hover to see other rain measurements)
** Current wind speed in m/s (hover to see current wind gust speed)